Time;durP1;ratioP1;P1;durP2;ratioP2;P2;SDS_P1;SDS_P2;PMS_P1;PMS_P2;Temp;Humidity;BMP_temperature;BMP_pressure;BME280_temperature;BME280_humidity;BME280_pressure;Samples;Min_cycle;Max_cycle;Signal;HPM_P1;HPM_P2
2023/08/01 00:01:02;;;;;;;4.80;2.78;;;17.50;99.90;;;;;;5139889;27;20042;-57
2023/08/01 00:03:29;;;;;;;6.68;3.00;;;17.50;99.90;;;;;;5143009;27;20035;-59
2023/08/01 00:05:56;;;;;;;5.30;2.58;;;17.60;99.90;;;;;;5126773;27;20111;-60
2023/08/01 00:08:22;;;;;;;6.22;2.67;;;18.10;99.90;;;;;;5141171;27;20055;-58
2023/08/01 00:10:49;;;;;;;5.68;2.47;;;17.60;99.90;;;;;;5137101;27;20055;-60
2023/08/01 00:13:16;;;;;;;8.63;2.75;;;17.60;99.90;;;;;;5139792;27;20514;-59
2023/08/01 00:15:42;;;;;;;4.13;2.45;;;17.60;99.90;;;;;;5138057;27;20043;-59
2023/08/01 00:18:29;;;;;;;4.63;3.00;;;17.70;99.90;;;;;;5141221;27;20043;-60
2023/08/01 00:20:56;;;;;;;6.45;3.08;;;17.70;99.90;;;;;;5139819;27;20578;-59
2023/08/01 00:23:23;;;;;;;4.45;2.70;;;17.70;99.90;;;;;;5137833;27;20046;-59
2023/08/01 00:25:51;;;;;;;10.02;3.00;;;17.70;99.90;;;;;;5130514;27;20043;-59
2023/08/01 00:28:18;;;;;;;7.20;3.10;;;17.70;99.90;;;;;;5137272;27;20072;-55
2023/08/01 00:30:45;;;;;;;5.20;3.22;;;17.60;99.90;;;;;;5113629;28;20063;-60
2023/08/01 00:33:13;;;;;;;5.40;2.92;;;17.50;99.90;;;;;;5111189;28;20054;-59
2023/08/01 00:35:39;;;;;;;5.05;3.08;;;17.60;99.90;;;;;;5132026;28;20502;-59
2023/08/01 00:38:06;;;;;;;5.93;3.08;;;17.60;99.90;;;;;;5106724;28;20044;-58
2023/08/01 00:40:34;;;;;;;6.38;2.60;;;17.50;99.90;;;;;;5101839;28;20043;-55
2023/08/01 00:43:00;;;;;;;5.90;3.30;;;17.50;99.90;;;;;;5112000;28;20495;-59
2023/08/01 00:45:28;;;;;;;5.15;3.00;;;17.50;99.90;;;;;;5124885;27;20036;-59
2023/08/01 00:47:56;;;;;;;4.97;2.90;;;17.60;99.90;;;;;;5116118;27;20069;-56
2023/08/01 00:50:24;;;;;;;4.03;2.63;;;17.50;99.90;;;;;;5095053;27;20051;-57
2023/08/01 00:52:52;;;;;;;8.27;3.10;;;17.60;99.90;;;;;;5110692;28;20036;-60
2023/08/01 00:55:20;;;;;;;3.47;2.50;;;17.50;99.90;;;;;;5117653;28;20051;-58
2023/08/01 00:57:47;;;;;;;5.15;2.80;;;17.50;99.90;;;;;;5113028;28;20039;-58
2023/08/01 01:00:14;;;;;;;5.07;2.85;;;17.50;99.90;;;;;;5129151;27;20062;-56
2023/08/01 01:02:41;;;;;;;5.18;3.05;;;17.40;99.90;;;;;;5133811;27;20043;-55
2023/08/01 01:05:08;;;;;;;4.45;3.05;;;17.40;99.90;;;;;;5140819;27;20100;-56
2023/08/01 01:07:35;;;;;;;5.80;2.90;;;17.40;99.90;;;;;;5119984;27;20047;-55
2023/08/01 01:10:03;;;;;;;6.40;3.78;;;17.30;99.90;;;;;;5127191;27;20126;-56
2023/08/01 01:12:29;;;;;;;6.13;3.13;;;17.20;99.90;;;;;;5120414;27;20142;-59
2023/08/01 01:14:56;;;;;;;6.15;2.85;;;17.10;99.90;;;;;;5126730;27;20453;-59
2023/08/01 01:17:23;;;;;;;4.68;3.28;;;17.20;99.90;;;;;;5143773;27;20043;-58
2023/08/01 01:19:50;;;;;;;6.30;3.05;;;17.20;99.90;;;;;;5123794;27;20059;-59
2023/08/01 01:22:17;;;;;;;5.35;2.90;;;17.20;99.90;;;;;;5143449;27;20395;-59
2023/08/01 01:24:46;;;;;;;5.32;3.55;;;17.20;99.90;;;;;;5128127;27;20049;-59
2023/08/01 01:27:15;;;;;;;5.47;3.28;;;17.10;99.90;;;;;;5110526;27;20055;-60
2023/08/01 01:29:44;;;;;;;5.32;3.47;;;17.20;99.90;;;;;;5114532;27;20483;-59
2023/08/01 01:32:11;;;;;;;6.38;3.53;;;17.20;99.90;;;;;;5113287;27;20040;-59
2023/08/01 01:34:38;;;;;;;7.32;4.32;;;17.20;99.90;;;;;;5123721;27;20498;-59
2023/08/01 01:37:05;;;;;;;4.60;3.33;;;17.30;99.90;;;;;;5114888;27;20475;-60
2023/08/01 01:39:32;;;;;;;9.05;4.28;;;17.20;99.90;;;;;;5112639;27;20130;-60
2023/08/01 01:41:59;;;;;;;4.72;3.72;;;17.20;99.90;;;;;;5134094;27;20061;-59
2023/08/01 01:44:25;;;;;;;9.43;3.90;;;17.10;99.90;;;;;;5127043;27;20044;-56
2023/08/01 01:46:52;;;;;;;5.03;3.38;;;17.10;99.90;;;;;;5134723;27;20050;-60
2023/08/01 01:49:19;;;;;;;7.00;3.28;;;17.00;99.90;;;;;;5133686;27;20084;-57
2023/08/01 01:51:46;;;;;;;7.70;3.53;;;17.00;99.90;;;;;;5115747;27;20483;-60
2023/08/01 01:54:12;;;;;;;9.95;4.07;;;16.90;99.90;;;;;;5115525;27;20507;-59
2023/08/01 01:56:39;;;;;;;6.97;3.42;;;16.90;99.90;;;;;;5113361;27;20051;-59
2023/08/01 01:59:06;;;;;;;;;;;17.00;99.90;;;;;;5116190;27;20061;-58
2023/08/01 02:01:33;;;;;;;7.15;3.72;;;17.00;99.90;;;;;;5114956;27;19919;-60
2023/08/01 02:04:00;;;;;;;7.40;4.00;;;17.00;99.90;;;;;;5114717;27;20051;-60
2023/08/01 02:06:27;;;;;;;9.82;4.10;;;17.10;99.90;;;;;;5110812;27;20138;-60
2023/08/01 02:08:54;;;;;;;6.70;4.22;;;17.10;99.90;;;;;;5112280;27;20039;-59
2023/08/01 02:11:22;;;;;;;9.80;4.25;;;17.00;99.90;;;;;;5113377;27;20055;-59
2023/08/01 02:13:49;;;;;;;6.68;3.25;;;17.00;99.90;;;;;;5131444;27;20035;-60
2023/08/01 02:16:16;;;;;;;7.35;3.90;;;16.90;99.90;;;;;;5132291;27;20042;-60
2023/08/01 02:18:43;;;;;;;7.78;3.70;;;16.90;99.90;;;;;;5110436;27;20039;-58
2023/08/01 02:21:10;;;;;;;5.25;3.47;;;16.80;99.90;;;;;;5132296;27;20050;-60
2023/08/01 02:23:37;;;;;;;9.18;4.50;;;16.90;99.90;;;;;;5128633;27;20057;-60
2023/08/01 02:26:04;;;;;;;7.53;4.53;;;16.90;99.90;;;;;;5108684;27;20040;-58
2023/08/01 02:28:31;;;;;;;10.85;4.93;;;16.90;99.90;;;;;;5132702;27;20506;-60
2023/08/01 02:30:58;;;;;;;8.25;4.57;;;16.90;99.90;;;;;;5109927;27;20053;-60
2023/08/01 02:33:24;;;;;;;7.80;4.40;;;16.90;99.90;;;;;;5130219;27;20070;-59
2023/08/01 02:35:51;;;;;;;6.47;4.10;;;17.00;99.90;;;;;;5108202;27;20126;-59
2023/08/01 02:38:18;;;;;;;8.35;4.25;;;17.00;99.90;;;;;;5111636;27;20492;-60
2023/08/01 02:40:46;;;;;;;6.85;4.00;;;17.00;99.90;;;;;;5111710;27;20066;-60
2023/08/01 02:43:12;;;;;;;6.43;4.13;;;17.00;99.90;;;;;;5115332;27;20035;-58
2023/08/01 02:45:41;;;;;;;8.68;3.78;;;16.90;99.90;;;;;;5133302;27;20038;-59
2023/08/01 02:48:09;;;;;;;6.75;4.10;;;17.00;99.90;;;;;;5114969;27;20499;-59
2023/08/01 02:50:36;;;;;;;;;;;17.00;99.90;;;;;;5110747;27;20041;-60
2023/08/01 02:53:04;;;;;;;6.50;4.50;;;17.00;99.90;;;;;;5133711;27;20010;-60
2023/08/01 02:55:31;;;;;;;6.63;4.47;;;17.00;99.90;;;;;;5133702;27;20047;-60
2023/08/01 02:57:58;;;;;;;11.07;4.75;;;16.90;99.90;;;;;;5115019;27;20605;-60
2023/08/01 03:00:25;;;;;;;10.30;5.18;;;17.00;99.90;;;;;;5113532;27;20039;-60
2023/08/01 03:02:52;;;;;;;8.93;4.68;;;16.90;99.90;;;;;;5112925;27;20061;-60
2023/08/01 03:05:20;;;;;;;9.40;4.97;;;16.90;99.90;;;;;;5131129;27;20034;-60
2023/08/01 03:07:46;;;;;;;7.15;4.82;;;16.90;99.90;;;;;;5112605;27;20041;-60
2023/08/01 03:10:13;;;;;;;8.30;4.70;;;17.00;99.90;;;;;;5107567;27;20893;-59
2023/08/01 03:12:56;;;;;;;11.07;4.72;;;16.90;99.90;;;;;;5130770;27;20369;-61
2023/08/01 03:15:23;;;;;;;8.35;4.95;;;16.90;99.90;;;;;;5114547;27;20047;-59
2023/08/01 03:17:49;;;;;;;8.52;4.40;;;16.90;99.90;;;;;;5133038;27;20046;-59
2023/08/01 03:20:16;;;;;;;12.55;3.95;;;16.90;99.90;;;;;;5111772;27;20471;-59
2023/08/01 03:22:43;;;;;;;7.45;4.38;;;16.90;99.90;;;;;;5113843;27;20039;-59
2023/08/01 03:25:11;;;;;;;6.40;4.75;;;16.90;99.90;;;;;;5114194;27;20080;-58
2023/08/01 03:27:38;;;;;;;11.45;5.25;;;16.90;99.90;;;;;;5112160;28;20054;-60
2023/08/01 03:30:08;;;;;;;8.40;5.28;;;16.90;99.90;;;;;;5109818;28;20048;-59
2023/08/01 03:32:37;;;;;;;7.00;5.18;;;16.90;99.90;;;;;;5114123;27;20035;-60
2023/08/01 03:35:05;;;;;;;14.43;5.57;;;16.80;99.90;;;;;;5122023;27;20062;-60
2023/08/01 03:37:32;;;;;;;10.48;5.75;;;16.80;99.90;;;;;;5132935;27;20130;-59
2023/08/01 03:39:59;;;;;;;;;;;16.80;99.90;;;;;;5114234;27;20134;-60
2023/08/01 03:42:26;;;;;;;8.95;4.95;;;16.80;99.90;;;;;;5113988;27;20287;-58
2023/08/01 03:44:52;;;;;;;8.23;5.43;;;16.80;99.90;;;;;;5109108;27;20381;-58
2023/08/01 03:47:19;;;;;;;10.52;5.13;;;16.80;99.90;;;;;;5132762;27;20092;-60
2023/08/01 03:49:46;;;;;;;10.50;5.57;;;16.80;99.90;;;;;;5112177;27;20050;-59
2023/08/01 03:52:14;;;;;;;8.68;4.85;;;16.80;99.90;;;;;;5113252;28;20047;-60
2023/08/01 03:54:40;;;;;;;8.73;5.18;;;16.80;99.90;;;;;;5121875;27;20404;-59
2023/08/01 03:57:08;;;;;;;11.55;4.82;;;16.80;99.90;;;;;;5112788;27;20040;-58
2023/08/01 03:59:34;;;;;;;8.60;5.90;;;16.80;99.90;;;;;;5126407;27;20040;-60
2023/08/01 04:02:03;;;;;;;10.13;6.07;;;16.70;99.90;;;;;;5123369;27;20035;-59
2023/08/01 04:04:31;;;;;;;9.57;5.53;;;16.70;99.90;;;;;;5112632;28;20038;-60
2023/08/01 04:06:58;;;;;;;10.13;6.05;;;16.80;99.90;;;;;;5132485;28;20042;-59
2023/08/01 04:09:24;;;;;;;8.30;5.30;;;16.80;99.90;;;;;;5112583;28;20047;-59
2023/08/01 04:11:51;;;;;;;7.78;5.20;;;16.80;99.90;;;;;;5131805;28;20036;-58
2023/08/01 04:14:18;;;;;;;12.30;7.53;;;16.70;99.90;;;;;;5124157;27;20027;-60
2023/08/01 04:16:45;;;;;;;10.23;6.20;;;16.80;99.90;;;;;;5131776;28;20047;-60
2023/08/01 04:19:12;;;;;;;;;;;16.70;99.90;;;;;;5131731;28;20039;-60
2023/08/01 04:21:39;;;;;;;11.25;5.88;;;16.70;99.90;;;;;;5127898;27;20407;-59
2023/08/01 04:24:06;;;;;;;15.50;6.68;;;16.70;99.90;;;;;;5130489;27;20039;-59
2023/08/01 04:26:33;;;;;;;13.82;6.82;;;16.70;99.90;;;;;;5132375;27;20055;-59
2023/08/01 04:28:59;;;;;;;12.98;6.90;;;16.70;99.90;;;;;;5125356;28;20047;-59
2023/08/01 04:31:26;;;;;;;18.05;7.68;;;16.60;99.90;;;;;;5131729;27;20035;-60
2023/08/01 04:33:53;;;;;;;10.13;6.50;;;16.50;99.90;;;;;;5110609;28;20039;-61
2023/08/01 04:36:20;;;;;;;11.40;7.03;;;16.50;99.90;;;;;;5130750;27;20037;-61
2023/08/01 04:38:46;;;;;;;14.15;6.00;;;16.50;99.90;;;;;;5120301;27;20036;-61
2023/08/01 04:41:13;;;;;;;11.32;6.00;;;16.50;99.90;;;;;;5130583;27;20039;-60
2023/08/01 04:43:40;;;;;;;14.02;6.32;;;16.40;99.90;;;;;;5135648;27;20046;-60
2023/08/01 04:46:07;;;;;;;10.32;6.47;;;16.40;99.90;;;;;;5124024;27;20046;-60
2023/08/01 04:48:33;;;;;;;11.13;6.10;;;16.40;99.90;;;;;;5136003;27;20031;-57
2023/08/01 04:51:00;;;;;;;12.88;6.47;;;16.40;99.90;;;;;;5135181;27;20480;-59
2023/08/01 04:53:27;;;;;;;10.20;5.55;;;16.30;99.90;;;;;;5132525;27;20448;-57
2023/08/01 04:55:54;;;;;;;8.07;4.15;;;16.30;99.90;;;;;;5134082;27;20035;-59
2023/08/01 04:58:20;;;;;;;8.77;5.45;;;16.30;99.90;;;;;;5135775;27;20047;-60
2023/08/01 05:00:47;;;;;;;14.23;6.57;;;16.20;99.90;;;;;;5130059;27;20040;-59
2023/08/01 05:03:14;;;;;;;7.93;5.57;;;16.20;99.90;;;;;;5114744;27;20067;-59
2023/08/01 05:05:41;;;;;;;13.18;5.43;;;16.20;99.90;;;;;;5134822;27;20042;-59
2023/08/01 05:08:07;;;;;;;11.65;6.03;;;16.10;99.90;;;;;;5132054;27;20039;-59
2023/08/01 05:10:34;;;;;;;9.98;5.97;;;16.10;99.90;;;;;;5130565;27;20038;-60
2023/08/01 05:13:02;;;;;;;14.80;6.55;;;16.10;99.90;;;;;;5128209;27;20050;-58
2023/08/01 05:15:29;;;;;;;14.48;5.13;;;16.20;99.90;;;;;;5131918;27;20518;-58
2023/08/01 05:17:57;;;;;;;10.77;5.43;;;16.10;99.90;;;;;;5133647;27;20489;-59
2023/08/01 05:20:30;;;;;;;11.52;5.50;;;16.10;99.90;;;;;;5125293;27;20096;-60
2023/08/01 05:23:00;;;;;;;9.57;5.05;;;16.10;99.90;;;;;;5129663;27;20480;-59
2023/08/01 05:25:26;;;;;;;11.05;5.32;;;16.10;99.90;;;;;;5131909;27;20035;-59
2023/08/01 05:27:53;;;;;;;14.52;5.85;;;16.10;99.90;;;;;;5132232;27;20062;-59
2023/08/01 05:30:20;;;;;;;9.02;4.95;;;16.00;99.90;;;;;;5132169;27;20047;-60
2023/08/01 05:32:47;;;;;;;9.68;6.28;;;16.00;99.90;;;;;;5134309;27;20089;-60
2023/08/01 05:35:14;;;;;;;11.65;5.10;;;16.00;99.90;;;;;;5133400;27;20054;-59
2023/08/01 05:37:41;;;;;;;6.90;4.57;;;16.00;99.90;;;;;;5131139;27;20057;-59
2023/08/01 05:40:09;;;;;;;10.00;4.97;;;16.00;99.90;;;;;;5118483;27;20035;-56
2023/08/01 05:42:36;;;;;;;16.70;5.63;;;16.10;99.90;;;;;;5134193;27;20039;-60
2023/08/01 05:45:04;;;;;;;11.10;5.47;;;16.10;99.90;;;;;;5134685;27;20050;-60
2023/08/01 05:47:31;;;;;;;8.75;5.90;;;16.10;99.90;;;;;;5131904;27;20484;-60
2023/08/01 05:49:57;;;;;;;;;;;16.20;99.90;;;;;;5130990;27;20084;-59
2023/08/01 05:52:25;;;;;;;15.43;5.55;;;16.20;99.90;;;;;;5128384;27;19919;-60
2023/08/01 05:54:51;;;;;;;9.02;5.60;;;16.20;99.90;;;;;;5129361;27;20035;-60
2023/08/01 05:57:18;;;;;;;14.70;6.00;;;16.30;99.90;;;;;;5134298;27;20407;-60
2023/08/01 05:59:45;;;;;;;10.20;5.88;;;16.30;99.90;;;;;;5133435;27;20038;-60
2023/08/01 06:02:12;;;;;;;;;;;16.20;99.90;;;;;;5124326;27;20032;-61
2023/08/01 06:04:39;;;;;;;8.05;5.03;;;16.10;99.90;;;;;;5114706;27;19923;-58
2023/08/01 06:07:06;;;;;;;12.25;5.78;;;16.10;99.90;;;;;;5134058;27;20071;-59
2023/08/01 06:09:33;;;;;;;7.82;5.18;;;16.00;99.90;;;;;;5127161;27;20122;-57
2023/08/01 06:12:00;;;;;;;10.20;5.65;;;16.10;99.90;;;;;;5131803;27;20455;-59
2023/08/01 06:14:27;;;;;;;11.02;5.88;;;16.70;99.90;;;;;;5131802;27;20035;-63
2023/08/01 06:16:53;;;;;;;44.67;7.60;;;16.10;99.90;;;;;;5133212;27;20045;-58
2023/08/01 06:19:20;;;;;;;11.20;5.60;;;16.10;99.90;;;;;;5126168;27;20055;-60
2023/08/01 06:21:47;;;;;;;10.52;6.13;;;16.00;99.90;;;;;;5132459;27;20471;-59
2023/08/01 06:24:14;;;;;;;15.68;7.38;;;16.10;99.90;;;;;;5132506;27;20035;-60
2023/08/01 06:26:41;;;;;;;21.73;7.13;;;16.00;99.90;;;;;;5134126;27;20043;-60
2023/08/01 06:29:08;;;;;;;12.73;6.45;;;16.10;99.90;;;;;;5133038;27;20067;-60
2023/08/01 06:31:35;;;;;;;9.93;6.45;;;16.10;99.90;;;;;;5133781;27;20031;-60
2023/08/01 06:34:01;;;;;;;12.07;5.93;;;16.10;99.90;;;;;;5124546;27;20088;-60
2023/08/01 06:36:28;;;;;;;9.77;6.00;;;16.20;99.90;;;;;;5134011;27;20039;-60
2023/08/01 06:38:55;;;;;;;12.45;6.28;;;16.30;99.90;;;;;;5133319;27;20476;-59
2023/08/01 06:41:22;;;;;;;9.57;5.43;;;16.40;99.90;;;;;;5133420;27;20042;-61
2023/08/01 06:43:51;;;;;;;8.07;5.43;;;16.40;99.90;;;;;;5122133;27;20047;-58
2023/08/01 06:46:17;;;;;;;11.13;5.40;;;16.40;99.90;;;;;;5133833;27;20031;-60
2023/08/01 06:48:44;;;;;;;12.80;5.97;;;16.50;99.90;;;;;;5133557;27;20035;-60
2023/08/01 06:51:11;;;;;;;9.82;5.60;;;16.50;99.90;;;;;;5110018;27;20086;-60
2023/08/01 06:53:38;;;;;;;9.15;5.38;;;16.60;99.90;;;;;;5126640;27;20035;-60
2023/08/01 06:56:04;;;;;;;8.95;5.95;;;16.50;99.90;;;;;;5131151;27;20419;-60
2023/08/01 06:58:31;;;;;;;11.57;5.78;;;16.50;99.90;;;;;;5126545;27;20042;-59
2023/08/01 07:00:58;;;;;;;13.75;6.05;;;16.50;99.90;;;;;;5124617;27;20050;-59
2023/08/01 07:03:24;;;;;;;9.15;5.95;;;16.40;99.90;;;;;;5132694;27;20039;-60
2023/08/01 07:05:51;;;;;;;5.97;4.30;;;16.40;99.90;;;;;;5129861;27;20042;-59
2023/08/01 07:08:21;;;;;;;7.65;5.18;;;16.30;99.90;;;;;;5133420;27;20146;-60
2023/08/01 07:10:48;;;;;;;9.20;4.97;;;16.20;99.90;;;;;;5114411;27;20039;-59
2023/08/01 07:13:16;;;;;;;7.38;4.70;;;16.10;99.90;;;;;;5131414;27;20035;-60
2023/08/01 07:15:42;;;;;;;8.27;4.65;;;16.10;99.90;;;;;;5128681;27;20118;-59
2023/08/01 07:18:09;;;;;;;12.48;6.00;;;16.20;99.90;;;;;;5129779;27;20509;-60
2023/08/01 07:20:36;;;;;;;7.97;5.28;;;16.20;99.90;;;;;;5127078;27;20043;-60
2023/08/01 07:23:03;;;;;;;8.00;4.85;;;16.20;99.90;;;;;;5131462;27;20428;-60
2023/08/01 07:25:30;;;;;;;8.52;5.10;;;16.30;99.90;;;;;;5125512;27;20510;-59
2023/08/01 07:27:57;;;;;;;7.97;4.50;;;16.30;99.90;;;;;;5132112;27;20545;-60
2023/08/01 07:30:24;;;;;;;5.72;4.20;;;16.20;99.90;;;;;;5132476;27;20426;-60
2023/08/01 07:32:51;;;;;;;10.93;5.18;;;16.20;99.90;;;;;;5124171;27;20412;-60
2023/08/01 07:35:18;;;;;;;8.75;5.28;;;16.20;99.90;;;;;;5122932;27;20042;-60
2023/08/01 07:37:44;;;;;;;11.30;5.88;;;16.10;99.90;;;;;;5119783;27;20043;-60
2023/08/01 07:40:11;;;;;;;10.90;4.97;;;16.10;99.90;;;;;;5126558;27;20051;-60
2023/08/01 07:42:38;;;;;;;10.38;5.43;;;16.10;99.90;;;;;;5111892;27;20057;-60
2023/08/01 07:45:06;;;;;;;10.00;5.32;;;16.10;99.90;;;;;;5130797;27;20121;-58
2023/08/01 07:47:33;;;;;;;8.50;5.13;;;16.10;99.90;;;;;;5132720;27;20035;-60
2023/08/01 07:49:59;;;;;;;7.93;5.07;;;16.00;99.90;;;;;;5130138;27;20035;-60
2023/08/01 07:52:26;;;;;;;6.50;4.50;;;16.10;99.90;;;;;;5132331;27;20273;-60
2023/08/01 07:54:55;;;;;;;9.05;5.35;;;16.10;99.90;;;;;;5131209;27;20046;-58
2023/08/01 07:57:22;;;;;;;10.57;5.63;;;16.10;99.90;;;;;;5132448;27;20045;-61
2023/08/01 07:59:49;;;;;;;10.77;5.60;;;16.10;99.90;;;;;;5132649;27;20043;-59
2023/08/01 08:02:16;;;;;;;8.43;5.15;;;16.10;99.90;;;;;;5125024;27;20039;-61
2023/08/01 08:04:42;;;;;;;16.23;6.13;;;16.10;99.90;;;;;;5126691;27;20039;-59
2023/08/01 08:07:09;;;;;;;9.30;5.97;;;16.20;99.90;;;;;;5131790;28;20047;-60
2023/08/01 08:09:36;;;;;;;10.75;6.45;;;16.10;99.90;;;;;;5128124;28;20048;-58
2023/08/01 08:12:03;;;;;;;11.60;6.60;;;16.10;99.90;;;;;;5129447;28;20039;-60
2023/08/01 08:14:30;;;;;;;13.07;6.85;;;16.20;99.90;;;;;;5131462;27;20035;-60
2023/08/01 08:16:56;;;;;;;12.68;7.03;;;16.20;99.90;;;;;;5136591;27;20086;-60
2023/08/01 08:19:25;;;;;;;18.98;7.40;;;16.30;99.90;;;;;;5125942;27;20051;-61
2023/08/01 08:21:51;;;;;;;11.88;6.43;;;16.30;99.90;;;;;;5130823;27;20039;-61
2023/08/01 08:24:19;;;;;;;8.45;5.82;;;16.40;99.90;;;;;;5130918;27;20043;-61
2023/08/01 08:26:45;;;;;;;9.98;5.55;;;16.40;99.90;;;;;;5132255;27;20032;-60
2023/08/01 08:29:12;;;;;;;8.38;5.05;;;16.50;99.90;;;;;;5126165;27;20044;-60
2023/08/01 08:31:39;;;;;;;8.20;5.20;;;16.60;99.90;;;;;;5128154;27;20039;-59
2023/08/01 08:34:06;;;;;;;7.70;5.53;;;16.80;99.90;;;;;;5131456;27;20072;-60
2023/08/01 08:36:32;;;;;;;13.50;5.90;;;17.00;99.90;;;;;;5136479;27;20039;-60
2023/08/01 08:39:00;;;;;;;7.88;5.78;;;17.10;99.90;;;;;;5129112;27;20051;-60
2023/08/01 08:41:29;;;;;;;9.82;4.93;;;17.20;99.90;;;;;;5124437;27;20377;-60
2023/08/01 08:44:00;;;;;;;11.32;5.90;;;17.30;99.90;;;;;;5131347;27;20399;-60
2023/08/01 08:46:29;;;;;;;8.30;5.75;;;17.50;99.90;;;;;;5135660;27;20045;-59
2023/08/01 08:48:57;;;;;;;11.02;5.32;;;17.60;99.90;;;;;;5134636;27;20050;-60
2023/08/01 08:51:28;;;;;;;9.10;5.30;;;17.70;99.90;;;;;;5127476;27;20039;-61
2023/08/01 08:53:56;;;;;;;9.73;4.88;;;17.70;99.90;;;;;;5136142;27;20043;-61
2023/08/01 08:56:28;;;;;;;8.43;4.82;;;17.80;99.90;;;;;;5136297;27;20039;-59
2023/08/01 08:58:56;;;;;;;7.80;5.32;;;17.80;99.90;;;;;;5132023;27;20495;-60
2023/08/01 09:01:22;;;;;;;10.80;5.70;;;17.80;99.90;;;;;;5133607;27;20387;-60
2023/08/01 09:03:49;;;;;;;7.05;5.15;;;17.70;99.90;;;;;;5129486;27;20050;-59
2023/08/01 09:06:20;;;;;;;6.50;4.72;;;17.80;99.90;;;;;;5134643;27;20050;-60
2023/08/01 09:08:52;;;;;;;7.57;4.40;;;17.70;99.90;;;;;;5131345;27;20046;-60
2023/08/01 09:11:18;;;;;;;6.43;4.30;;;17.70;99.90;;;;;;5134536;27;20057;-60
2023/08/01 09:13:46;;;;;;;9.82;5.55;;;17.60;99.90;;;;;;5135077;27;20043;-60
2023/08/01 09:16:15;;;;;;;8.23;5.00;;;17.50;99.90;;;;;;5127942;27;20043;-60
2023/08/01 09:18:51;;;;;;;10.30;4.50;;;17.50;99.90;;;;;;5135213;27;20042;-60
2023/08/01 09:21:19;;;;;;;6.05;4.20;;;17.50;99.90;;;;;;5129096;27;20043;-60
2023/08/01 09:23:47;;;;;;;4.90;3.75;;;17.50;99.90;;;;;;5129404;27;20459;-60
2023/08/01 09:26:17;;;;;;;;;;;17.40;99.90;;;;;;5129344;27;20454;-60
2023/08/01 09:28:54;;;;;;;5.43;3.88;;;17.50;99.90;;;;;;5129831;27;19919;-61
2023/08/01 09:31:28;;;;;;;6.20;4.28;;;17.60;99.90;;;;;;5129011;27;20043;-59
2023/08/01 09:33:57;;;;;;;5.10;3.53;;;17.50;99.90;;;;;;5135084;27;20046;-60
2023/08/01 09:36:25;;;;;;;6.53;4.82;;;17.50;99.90;;;;;;5131568;27;20064;-60
2023/08/01 09:39:02;;;;;;;9.45;4.70;;;17.50;99.90;;;;;;5131013;27;20039;-61
2023/08/01 09:41:30;;;;;;;9.32;4.50;;;17.40;99.90;;;;;;5122009;27;20081;-60
2023/08/01 09:43:57;;;;;;;7.32;3.90;;;17.30;99.90;;;;;;5134636;27;20130;-60
2023/08/01 09:46:24;;;;;;;;;;;17.30;99.90;;;;;;5135363;27;20388;-60
2023/08/01 09:48:51;;;;;;;7.35;4.72;;;17.20;99.90;;;;;;5134767;27;19923;-59
2023/08/01 09:51:18;;;;;;;7.78;4.60;;;17.20;99.90;;;;;;5129812;27;20589;-60
2023/08/01 09:53:55;;;;;;;10.40;5.85;;;17.20;99.90;;;;;;5129810;27;20044;-60
2023/08/01 09:56:24;;;;;;;11.07;6.10;;;17.20;99.90;;;;;;5125346;27;20438;-60
2023/08/01 09:58:54;;;;;;;10.30;5.63;;;17.30;99.90;;;;;;5133673;27;20085;-61
2023/08/01 10:01:23;;;;;;;6.05;4.55;;;17.20;99.90;;;;;;5132427;27;20081;-61
2023/08/01 10:03:52;;;;;;;5.70;4.13;;;17.20;99.90;;;;;;5126597;27;20047;-59
2023/08/01 10:06:21;;;;;;;8.98;4.88;;;17.30;99.90;;;;;;5133299;27;20321;-60
2023/08/01 10:08:49;;;;;;;9.90;5.80;;;17.30;99.90;;;;;;5129475;27;20110;-61
2023/08/01 10:11:18;;;;;;;8.52;4.93;;;17.40;99.90;;;;;;5133827;27;20039;-61
2023/08/01 10:13:45;;;;;;;9.13;4.63;;;17.50;99.90;;;;;;5113464;27;20126;-60
2023/08/01 10:16:14;;;;;;;7.18;4.60;;;17.50;99.90;;;;;;5134251;27;20051;-61
2023/08/01 10:18:42;;;;;;;7.93;5.13;;;17.50;99.90;;;;;;5134505;27;20050;-60
2023/08/01 10:21:14;;;;;;;5.85;3.70;;;17.50;99.90;;;;;;5115230;27;20414;-61
2023/08/01 10:23:42;;;;;;;8.93;4.80;;;17.50;99.90;;;;;;5128179;27;20035;-61
2023/08/01 10:26:10;;;;;;;7.68;4.53;;;17.50;99.90;;;;;;5115421;27;20088;-61
2023/08/01 10:28:41;;;;;;;7.72;5.28;;;17.50;99.90;;;;;;5133374;27;20031;-61
2023/08/01 10:31:12;;;;;;;5.28;4.32;;;17.50;99.90;;;;;;5132262;27;20122;-61
2023/08/01 10:33:41;;;;;;;5.97;4.30;;;17.50;99.90;;;;;;5133969;27;20049;-60
2023/08/01 10:36:15;;;;;;;5.05;3.33;;;17.60;99.90;;;;;;5134047;27;20514;-60
2023/08/01 10:38:52;;;;;;;5.10;3.65;;;17.60;99.90;;;;;;5129204;27;20046;-59
2023/08/01 10:41:28;;;;;;;5.45;3.53;;;17.70;99.90;;;;;;5126521;27;20046;-59
2023/08/01 10:44:07;;;;;;;7.57;4.45;;;18.00;99.90;;;;;;5126912;27;20585;-61
2023/08/01 10:46:54;;;;;;;6.30;3.67;;;18.10;99.90;;;;;;5118609;27;20092;-60
2023/08/01 10:49:37;;;;;;;7.55;3.60;;;18.20;99.90;;;;;;5133481;27;20038;-61
2023/08/01 10:52:17;;;;;;;5.18;3.53;;;18.20;99.90;;;;;;5127711;27;20042;-61
2023/08/01 10:54:44;;;;;;;6.07;3.67;;;18.20;99.90;;;;;;5122043;27;20043;-61
2023/08/01 10:57:18;;;;;;;7.18;3.38;;;18.30;99.90;;;;;;5126932;27;20516;-60
2023/08/01 10:59:45;;;;;;;4.50;3.60;;;18.40;99.90;;;;;;5128800;27;20036;-60
2023/08/01 11:02:19;;;;;;;;;;;18.60;99.90;;;;;;5124430;27;20422;-61
2023/08/01 11:05:04;;;;;;;4.57;3.65;;;18.70;99.90;;;;;;5133503;27;19950;-60
2023/08/01 11:07:32;;;;;;;6.82;3.70;;;19.00;99.90;;;;;;5130894;27;20484;-60
2023/08/01 11:10:08;;;;;;;;;;;19.30;99.90;;;;;;5120746;27;20043;-60
2023/08/01 11:12:40;;;;;;;4.88;3.35;;;19.60;99.90;;;;;;5129343;27;19927;-60
2023/08/01 11:15:09;;;;;;;5.65;3.67;;;19.60;99.90;;;;;;5124483;27;20039;-58
2023/08/01 11:17:43;;;;;;;6.05;3.47;;;19.50;99.90;;;;;;5124361;27;20043;-61
2023/08/01 11:20:11;;;;;;;6.03;3.78;;;19.30;99.90;;;;;;5131777;27;20054;-60
2023/08/01 11:23:00;;;;;;;8.50;3.67;;;19.10;99.90;;;;;;5130139;27;20069;-61
2023/08/01 11:25:37;;;;;;;7.13;4.15;;;18.90;99.90;;;;;;5131088;27;20062;-58
2023/08/01 11:28:13;;;;;;;3.92;3.17;;;18.80;99.90;;;;;;5122967;27;20050;-61
2023/08/01 11:30:40;;;;;;;6.68;3.72;;;18.60;99.90;;;;;;5132328;27;20035;-61
2023/08/01 11:33:20;;;;;;;6.47;3.72;;;18.50;99.90;;;;;;5122071;27;20063;-60
2023/08/01 11:35:59;;;;;;;5.80;3.65;;;18.40;99.90;;;;;;5124579;27;20039;-60
2023/08/01 11:38:29;;;;;;;6.88;3.83;;;18.20;99.90;;;;;;5130826;27;20041;-61
2023/08/01 11:41:03;;;;;;;8.48;4.25;;;18.20;99.90;;;;;;5132370;27;20453;-59
2023/08/01 11:43:43;;;;;;;6.10;4.15;;;18.10;99.90;;;;;;5132603;27;20823;-60
2023/08/01 11:46:10;;;;;;;6.25;4.40;;;18.10;99.90;;;;;;5129643;27;20031;-60
2023/08/01 11:48:37;;;;;;;7.53;4.57;;;18.00;99.90;;;;;;5130054;27;20041;-60
2023/08/01 11:51:04;;;;;;;7.70;5.18;;;18.00;99.90;;;;;;5132555;27;20039;-61
2023/08/01 11:53:38;;;;;;;;;;;18.00;99.90;;;;;;5129549;27;20084;-61
2023/08/01 11:56:05;;;;;;;21.50;6.80;;;17.90;99.90;;;;;;5128494;27;19950;-60
2023/08/01 11:58:35;;;;;;;9.82;6.18;;;18.00;99.90;;;;;;5132529;27;20049;-60
2023/08/01 12:01:03;;;;;;;8.10;6.10;;;18.00;99.90;;;;;;5132279;27;20043;-61
2023/08/01 12:03:30;;;;;;;9.57;6.20;;;18.00;99.90;;;;;;5125157;27;20051;-61
2023/08/01 12:06:07;;;;;;;8.90;6.13;;;18.00;99.90;;;;;;5132349;28;20448;-60
2023/08/01 12:08:34;;;;;;;19.80;7.85;;;17.90;99.90;;;;;;5128555;27;20074;-61
2023/08/01 12:11:01;;;;;;;14.30;6.32;;;17.80;99.90;;;;;;5128131;27;20039;-61
2023/08/01 12:13:28;;;;;;;9.60;6.28;;;17.70;99.90;;;;;;5126663;27;20032;-61
2023/08/01 12:15:59;;;;;;;8.60;5.82;;;17.70;99.90;;;;;;5125765;27;20466;-60
2023/08/01 12:18:28;;;;;;;9.10;6.05;;;17.80;99.90;;;;;;5131023;28;20122;-61
2023/08/01 12:20:57;;;;;;;11.15;6.32;;;18.00;99.90;;;;;;5125833;28;20036;-61
2023/08/01 12:23:24;;;;;;;8.50;6.15;;;18.20;99.90;;;;;;5127373;27;20114;-59
2023/08/01 12:25:51;;;;;;;8.48;5.97;;;18.60;99.90;;;;;;5128101;27;20031;-61
2023/08/01 12:28:18;;;;;;;6.75;5.20;;;18.80;99.90;;;;;;5129690;28;20043;-60
2023/08/01 12:30:44;;;;;;;9.77;6.15;;;18.90;99.90;;;;;;5131301;28;20035;-61
2023/08/01 12:33:11;;;;;;;9.15;5.90;;;18.90;99.90;;;;;;5125015;28;20047;-61
2023/08/01 12:35:41;;;;;;;9.15;5.05;;;18.80;99.90;;;;;;5132226;28;20043;-61
2023/08/01 12:38:09;;;;;;;10.27;5.60;;;18.80;99.90;;;;;;5132115;28;20042;-61
2023/08/01 12:40:36;;;;;;;9.20;5.50;;;18.80;99.90;;;;;;5128674;28;20042;-61
2023/08/01 12:43:03;;;;;;;9.32;5.95;;;18.90;99.90;;;;;;5130980;27;20047;-61
2023/08/01 12:45:29;;;;;;;10.85;5.88;;;19.00;99.90;;;;;;5132106;28;20039;-60
2023/08/01 12:47:56;;;;;;;8.15;5.00;;;19.10;99.90;;;;;;5131991;28;20058;-61
2023/08/01 12:50:24;;;;;;;8.48;5.47;;;19.20;99.90;;;;;;5131891;28;20065;-61